createdAt,value
2023-08-01T00:03:54.568Z,36.9
2023-08-01T00:09:49.097Z,36.9
2023-08-01T00:15:43.608Z,36.9
2023-08-01T00:21:44.127Z,36.8
2023-08-01T00:27:39.515Z,36.8
2023-08-01T00:33:32.105Z,36.8
2023-08-01T00:45:00.162Z,36.8
2023-08-01T00:50:52.350Z,36.8
2023-08-01T00:56:43.784Z,36.8
2023-08-01T01:02:36.803Z,36.7
2023-08-01T01:08:30.209Z,36.7
2023-08-01T01:14:21.848Z,36.7
2023-08-01T01:20:14.033Z,36.6
2023-08-01T01:26:11.954Z,36.6
2023-08-01T01:32:04.336Z,36.6
2023-08-01T01:37:41.043Z,36.6
2023-08-01T01:43:17.301Z,36.6
2023-08-01T01:49:09.453Z,36.6
2023-08-01T01:55:01.390Z,36.6
2023-08-01T02:00:53.210Z,36.6
2023-08-01T02:06:44.473Z,36.5
2023-08-01T02:12:35.766Z,36.5
2023-08-01T02:18:28.253Z,36.4
2023-08-01T02:24:22.619Z,36.4
2023-08-01T02:30:13.610Z,36.4
2023-08-01T02:36:07.264Z,36.4
2023-08-01T02:41:59.369Z,36.3
2023-08-01T02:47:51.078Z,36.2
2023-08-01T02:53:42.373Z,36.1
2023-08-01T02:59:33.840Z,36
2023-08-01T03:11:26.168Z,35.9
2023-08-01T03:17:17.690Z,35.9
2023-08-01T03:23:08.861Z,35.8
2023-08-01T03:29:00.682Z,35.8
2023-08-01T03:34:52.730Z,35.8
2023-08-01T03:40:43.536Z,35.7
2023-08-01T03:46:35.568Z,35.7
2023-08-01T03:52:27.165Z,35.7
2023-08-01T03:58:19.318Z,35.6
2023-08-01T04:04:12.471Z,35.6
2023-08-01T04:10:04.495Z,35.6
2023-08-01T04:15:55.649Z,35.6
2023-08-01T04:21:46.677Z,35.6
2023-08-01T04:27:37.846Z,35.6
2023-08-01T04:33:29.325Z,35.5
2023-08-01T04:39:20.761Z,35.5
2023-08-01T04:45:12.152Z,35.4
2023-08-01T04:51:02.915Z,35.4
2023-08-01T04:56:55.230Z,35.4
2023-08-01T05:02:31.424Z,35.4
2023-08-01T05:08:23.446Z,35.4
2023-08-01T05:14:14.737Z,35.4
2023-08-01T05:20:06.536Z,35.4
2023-08-01T05:25:57.954Z,35.3
2023-08-01T05:31:49.569Z,35.3
2023-08-01T05:37:41.084Z,35.3
2023-08-01T05:43:32.565Z,35.3
2023-08-01T05:49:25.072Z,35.2
2023-08-01T05:55:17.211Z,35.2
2023-08-01T06:01:11.216Z,35.2
2023-08-01T06:06:49.027Z,34.5
2023-08-01T06:12:25.280Z,34.6
2023-08-01T06:18:01.954Z,38.4
2023-08-01T06:23:54.360Z,40.1
2023-08-01T06:29:48.191Z,41.1
2023-08-01T06:35:39.843Z,41.9
2023-08-01T06:41:31.935Z,42.8
2023-08-01T06:47:24.313Z,43.6
2023-08-01T06:53:16.758Z,44.4
2023-08-01T06:59:08.826Z,44.9
2023-08-01T07:05:01.552Z,45.6
2023-08-01T07:10:56.163Z,46.3
2023-08-01T07:16:48.304Z,47.1
2023-08-01T07:22:39.912Z,48
2023-08-01T07:28:33.988Z,48.8
2023-08-01T07:34:26.279Z,49.6
2023-08-01T07:40:18.532Z,50.4
2023-08-01T07:46:09.632Z,51.3
2023-08-01T07:52:02.194Z,52
2023-08-01T07:57:54.135Z,52.8
2023-08-01T08:03:46.208Z,53.6
2023-08-01T08:09:39.055Z,54.4
2023-08-01T08:15:30.662Z,55.1
2023-08-01T08:21:22.450Z,55.8
2023-08-01T08:26:43.687Z,56.4
2023-08-01T08:32:05.047Z,57.1
2023-08-01T08:37:58.364Z,57.7
2023-08-01T08:43:50.461Z,58.3
2023-08-01T08:49:43.584Z,58.8
2023-08-01T08:55:35.698Z,59.4
2023-08-01T09:01:28.337Z,59.9
2023-08-01T09:07:23.737Z,60.4
2023-08-01T09:13:15.358Z,60.9
2023-08-01T09:19:09.662Z,61.4
2023-08-01T09:24:48.365Z,61.7
2023-08-01T09:30:39.773Z,62
2023-08-01T09:36:33.894Z,62.3
2023-08-01T09:42:10.327Z,62.7
2023-08-01T09:48:05.860Z,63.3
2023-08-01T09:53:42.408Z,63.8
2023-08-01T09:59:33.559Z,64.1
2023-08-01T10:05:26.182Z,64.4
2023-08-01T10:11:18.833Z,64.9
2023-08-01T10:17:11.796Z,65.3
2023-08-01T10:23:04.091Z,65.7
2023-08-01T10:28:40.287Z,65.9
2023-08-01T10:34:17.678Z,66.2
2023-08-01T10:40:09.116Z,66.8
2023-08-01T10:46:03.330Z,67.1
2023-08-01T10:51:55.018Z,65.3
2023-08-01T10:57:51.529Z,66.6
2023-08-01T11:03:28.559Z,67.1
2023-08-01T11:09:20.557Z,67.4
2023-08-01T11:15:12.109Z,67.9
2023-08-01T11:20:47.738Z,68
2023-08-01T11:26:39.943Z,68.1
2023-08-01T11:32:32.226Z,68.1
2023-08-01T11:38:24.854Z,68.3
2023-08-01T11:44:16.276Z,68.3
2023-08-01T11:50:08.500Z,68.4
2023-08-01T11:56:00.082Z,68.4
2023-08-01T12:01:53.819Z,68.5
2023-08-01T12:07:47.736Z,68.8
2023-08-01T12:13:41.293Z,68.9
2023-08-01T12:19:49.528Z,68.7
2023-08-01T12:25:41.721Z,68.6
2023-08-01T12:31:33.390Z,68.6
2023-08-01T12:37:25.869Z,68.4
2023-08-01T12:43:17.667Z,68.3
2023-08-01T12:49:13.876Z,68.1
2023-08-01T12:55:05.708Z,68
2023-08-01T13:00:42.244Z,67.8
2023-08-01T13:06:34.710Z,67.4
2023-08-01T13:12:26.384Z,67.3
2023-08-01T13:18:31.073Z,67
2023-08-01T13:24:25.104Z,66.8
2023-08-01T13:30:16.570Z,66.6
2023-08-01T13:36:09.301Z,65.1
2023-08-01T13:42:00.205Z,65.1
2023-08-01T13:48:06.158Z,65.1
2023-08-01T13:54:00.654Z,64.8
2023-08-01T13:59:58.699Z,64.3
2023-08-01T14:05:50.821Z,63.7
2023-08-01T14:11:43.398Z,63.3
2023-08-01T14:17:35.344Z,62.8
2023-08-01T14:23:26.809Z,62.3
2023-08-01T14:29:17.987Z,61.8
2023-08-01T14:35:10.682Z,61.2
2023-08-01T14:41:54.746Z,60.4
2023-08-01T14:47:54.824Z,59.8
2023-08-01T14:53:50.417Z,59.3
2023-08-01T14:59:56.176Z,58.7
2023-08-01T15:05:51.201Z,58
2023-08-01T15:11:28.836Z,57.4
2023-08-01T15:17:05.323Z,56.8
2023-08-01T15:22:57.022Z,55.9
2023-08-01T15:28:48.905Z,55.1
2023-08-01T15:34:40.212Z,52.5
2023-08-01T15:40:31.602Z,51.1
2023-08-01T15:46:26.523Z,50.2
2023-08-01T15:52:18.549Z,49.5
2023-08-01T15:58:11.967Z,49
2023-08-01T16:04:03.389Z,48.6
2023-08-01T16:09:55.310Z,48.3
2023-08-01T16:15:46.776Z,48.1
2023-08-01T16:21:25.135Z,47.8
2023-08-01T16:27:02.118Z,47.7
2023-08-01T16:32:54.064Z,47.6
2023-08-01T16:38:31.747Z,47.5
2023-08-01T16:44:24.608Z,47.4
2023-08-01T16:50:44.321Z,47.3
2023-08-01T16:56:19.756Z,47.2
2023-08-01T17:02:10.987Z,46.9
2023-08-01T17:08:04.148Z,46.6
2023-08-01T17:13:57.025Z,46.4
2023-08-01T17:19:48.469Z,46.3
2023-08-01T17:25:40.638Z,46.1
2023-08-01T17:31:32.958Z,45.9
2023-08-01T17:37:24.820Z,45.9
2023-08-01T17:43:16.468Z,45.8
2023-08-01T17:49:09.832Z,45.6
2023-08-01T17:55:01.949Z,45.6
2023-08-01T18:00:23.395Z,45.5
2023-08-01T18:06:02.977Z,45.4
2023-08-01T18:11:38.881Z,45.3
2023-08-01T18:17:17.328Z,45.3
2023-08-01T18:22:53.492Z,45.2
2023-08-01T18:28:45.061Z,45.1
2023-08-01T18:34:36.878Z,45.1
2023-08-01T18:40:31.854Z,45
2023-08-01T18:46:23.773Z,44.9
2023-08-01T18:52:16.684Z,44.9
2023-08-01T18:57:53.571Z,44.8
2023-08-01T19:03:44.913Z,44.8
2023-08-01T19:09:42.677Z,44.4
2023-08-01T19:15:35.891Z,44.2
2023-08-01T19:21:27.700Z,44.1
2023-08-01T19:27:20.521Z,44
2023-08-01T19:33:13.353Z,43.9
2023-08-01T19:39:04.561Z,43.8
2023-08-01T19:44:55.789Z,43.8
2023-08-01T19:50:34.006Z,43.7
2023-08-01T19:56:25.370Z,43.6
2023-08-01T20:02:02.464Z,43.6
2023-08-01T20:07:57.576Z,43.6
2023-08-01T20:13:48.532Z,43.5
2023-08-01T20:19:25.512Z,43.4
2023-08-01T20:25:16.084Z,43.4
2023-08-01T20:31:07.587Z,43.4
2023-08-01T20:36:59.860Z,43.3
2023-08-01T20:42:50.793Z,43.3
2023-08-01T20:48:45.866Z,43.3
2023-08-01T20:54:37.419Z,43.2
2023-08-01T21:00:28.638Z,43.2
2023-08-01T21:06:20.718Z,43.1
2023-08-01T21:12:27.830Z,43.1
2023-08-01T21:18:04.873Z,43.1
2023-08-01T21:23:56.886Z,43
2023-08-01T21:29:33.352Z,43
2023-08-01T21:35:11.040Z,42.9
2023-08-01T21:41:02.294Z,42.9
2023-08-01T21:46:54.742Z,42.9
2023-08-01T21:52:46.784Z,42.8
2023-08-01T21:58:39.057Z,42.8
2023-08-01T22:04:31.957Z,42.8
2023-08-01T22:10:24.938Z,42.8
2023-08-01T22:16:01.575Z,42.8
2023-08-01T22:21:38.841Z,42.7
2023-08-01T22:27:31.257Z,42.6
2023-08-01T22:33:23.097Z,42.6
2023-08-01T22:39:14.927Z,42.6
2023-08-01T22:44:50.867Z,42.6
2023-08-01T22:50:55.789Z,42.5
2023-08-01T22:56:32.474Z,42.5
2023-08-01T23:02:24.129Z,42.4
2023-08-01T23:08:01.058Z,42.4
2023-08-01T23:13:51.097Z,42.4
2023-08-01T23:19:27.787Z,42.4
2023-08-01T23:25:04.330Z,42.3
2023-08-01T23:30:56.961Z,42.3
2023-08-01T23:36:33.298Z,42.3
2023-08-01T23:42:24.872Z,42.3
2023-08-01T23:48:17.625Z,42.3
2023-08-01T23:54:08.905Z,42.2
2023-08-01T23:59:45.872Z,42.2
